createdAt,value
2022-10-14T00:00:08.723Z,119.90
2022-10-14T00:03:03.290Z,130.90
2022-10-14T00:05:35.062Z,122.60
2022-10-14T00:08:06.920Z,120.70
2022-10-14T00:10:41.060Z,107.80
2022-10-14T00:13:12.755Z,113.40
2022-10-14T00:15:44.981Z,124.00
2022-10-14T00:18:16.900Z,123.20
2022-10-14T00:20:57.946Z,127.70
2022-10-14T00:23:30.093Z,131.80
2022-10-14T00:26:02.388Z,117.50
2022-10-14T00:28:35.461Z,114.60
2022-10-14T00:31:07.308Z,105.10
2022-10-14T00:33:39.030Z,104.10
2022-10-14T00:36:13.854Z,96.30
2022-10-14T00:38:47.659Z,96.70
2022-10-14T00:41:21.933Z,92.10
2022-10-14T00:44:02.235Z,93.60
2022-10-14T00:46:36.061Z,91.70
2022-10-14T00:49:15.563Z,95.00
2022-10-14T00:51:53.481Z,85.80
2022-10-14T00:54:30.419Z,84.00
2022-10-14T00:57:03.387Z,79.60
2022-10-14T00:59:37.275Z,72.50
2022-10-14T01:02:09.392Z,78.40
2022-10-14T01:04:44.011Z,73.10
2022-10-14T01:07:25.342Z,79.90
2022-10-14T01:10:04.289Z,88.20
2022-10-14T01:12:45.294Z,93.10
2022-10-14T01:15:26.419Z,82.20
2022-10-14T01:18:09.864Z,94.20
2022-10-14T01:20:54.983Z,85.30
2022-10-14T01:23:55.474Z,75.80
2022-10-14T01:26:49.668Z,76.10
2022-10-14T01:29:34.954Z,76.30
2022-10-14T01:32:14.336Z,75.20
2022-10-14T01:34:53.518Z,75.20
2022-10-14T01:37:30.090Z,73.90
2022-10-14T01:40:06.796Z,80.80
2022-10-14T01:42:42.208Z,81.70
2022-10-14T01:45:20.103Z,82.40
2022-10-14T01:47:54.487Z,92.00
2022-10-14T01:50:29.182Z,70.90
2022-10-14T01:53:06.276Z,74.90
2022-10-14T01:55:43.479Z,77.40
2022-10-14T01:58:18.116Z,72.40
2022-10-14T02:00:50.034Z,73.90
2022-10-14T02:03:21.732Z,76.80
2022-10-14T02:06:00.781Z,79.80
2022-10-14T02:08:46.529Z,81.30
2022-10-14T02:11:21.141Z,88.90
2022-10-14T02:14:09.194Z,93.00
2022-10-14T02:16:49.355Z,80.00
2022-10-14T02:19:30.561Z,72.00
2022-10-14T02:22:06.969Z,77.10
2022-10-14T02:24:41.989Z,76.90
2022-10-14T02:27:17.500Z,76.00
2022-10-14T02:29:50.667Z,74.00
2022-10-14T02:32:25.381Z,79.40
2022-10-14T02:34:59.938Z,78.50
2022-10-14T02:37:34.040Z,85.40
2022-10-14T02:40:12.799Z,83.50
2022-10-14T02:42:44.688Z,86.50
2022-10-14T02:45:17.402Z,83.10
2022-10-14T02:47:50.005Z,79.20
2022-10-14T02:50:22.202Z,75.30
2022-10-14T02:52:56.424Z,79.50
2022-10-14T02:55:28.275Z,69.70
2022-10-14T02:57:59.969Z,78.30
2022-10-14T03:00:31.827Z,76.20
2022-10-14T03:03:03.669Z,71.30
2022-10-14T03:05:35.683Z,77.10
2022-10-14T03:08:07.837Z,72.70
2022-10-14T03:10:39.496Z,75.70
2022-10-14T03:13:12.857Z,72.60
2022-10-14T03:15:48.865Z,70.30
2022-10-14T03:18:21.696Z,65.90
2022-10-14T03:20:53.876Z,64.50
2022-10-14T03:23:28.886Z,60.10
2022-10-14T03:26:00.566Z,63.60
2022-10-14T03:28:38.000Z,64.10
2022-10-14T03:31:23.968Z,65.10
2022-10-14T03:34:14.444Z,64.90
2022-10-14T03:36:46.672Z,56.70
2022-10-14T03:39:18.507Z,56.30
2022-10-14T03:41:53.742Z,54.40
2022-10-14T03:44:30.805Z,53.20
2022-10-14T03:47:23.499Z,53.50
2022-10-14T03:49:55.907Z,52.10
2022-10-14T03:52:32.448Z,53.50
2022-10-14T03:55:10.443Z,54.40
2022-10-14T03:57:42.304Z,53.10
2022-10-14T04:00:17.485Z,53.40
2022-10-14T04:02:51.260Z,50.60
2022-10-14T04:05:37.245Z,47.70
2022-10-14T04:08:14.022Z,46.00
2022-10-14T04:10:54.538Z,44.40
2022-10-14T04:13:26.854Z,43.70
2022-10-14T04:15:58.864Z,43.10
2022-10-14T04:18:39.337Z,46.90
2022-10-14T04:21:14.830Z,48.60
2022-10-14T04:23:47.367Z,49.30
2022-10-14T04:26:20.943Z,51.20
2022-10-14T04:28:52.910Z,49.30
2022-10-14T04:31:35.160Z,46.60
2022-10-14T04:34:07.999Z,51.10
2022-10-14T04:36:42.428Z,44.70
2022-10-14T04:39:27.156Z,46.50
2022-10-14T04:41:59.130Z,47.30
2022-10-14T04:44:31.021Z,46.80
2022-10-14T04:47:05.745Z,47.60
2022-10-14T04:49:37.576Z,52.90
2022-10-14T04:55:07.506Z,49.70
2022-10-14T04:57:43.918Z,50.40
2022-10-14T05:00:18.014Z,49.10
2022-10-14T05:03:04.676Z,44.60
2022-10-14T05:05:38.941Z,43.60
2022-10-14T05:08:10.713Z,38.90
2022-10-14T05:10:45.731Z,44.60
2022-10-14T05:13:21.629Z,38.10
2022-10-14T05:16:00.108Z,35.10
2022-10-14T05:18:32.239Z,38.60
2022-10-14T05:21:07.572Z,36.50
2022-10-14T05:23:57.495Z,37.50
2022-10-14T05:26:30.605Z,39.20
2022-10-14T05:29:03.498Z,37.50
2022-10-14T05:31:35.489Z,38.80
2022-10-14T05:34:15.832Z,38.90
2022-10-14T05:36:48.247Z,33.60
2022-10-14T05:39:20.978Z,34.20
2022-10-14T05:41:53.127Z,35.80
2022-10-14T05:44:28.191Z,35.40
2022-10-14T05:47:00.311Z,39.30
2022-10-14T05:49:32.430Z,36.30
2022-10-14T05:52:06.343Z,48.10
2022-10-14T05:54:38.459Z,34.30
2022-10-14T05:57:11.007Z,32.80
2022-10-14T05:59:43.473Z,32.00
2022-10-14T06:02:15.429Z,30.00
2022-10-14T06:04:47.516Z,35.30
2022-10-14T06:07:19.949Z,36.20
2022-10-14T06:09:51.873Z,36.00
2022-10-14T06:12:25.758Z,36.90
2022-10-14T06:14:57.892Z,39.80
2022-10-14T06:20:18.614Z,35.20
2022-10-14T06:22:50.481Z,34.50
2022-10-14T06:25:22.829Z,32.30
2022-10-14T06:27:55.236Z,33.80
2022-10-14T06:30:27.473Z,31.80
2022-10-14T06:33:00.161Z,32.20
2022-10-14T06:35:32.251Z,32.10
2022-10-14T06:38:07.613Z,32.60
2022-10-14T06:40:40.463Z,35.90
2022-10-14T06:43:12.950Z,33.10
2022-10-14T06:45:45.610Z,34.70
2022-10-14T06:48:17.566Z,35.90
2022-10-14T06:50:49.772Z,31.90
2022-10-14T06:53:22.328Z,33.00
2022-10-14T06:56:00.621Z,30.20
2022-10-14T07:01:07.014Z,29.00
2022-10-14T07:03:39.636Z,32.60
2022-10-14T07:06:12.351Z,38.80
2022-10-14T07:08:45.370Z,38.30
2022-10-14T07:17:18.197Z,37.30
2022-10-14T07:19:50.081Z,34.10
2022-10-14T07:22:22.336Z,34.00
2022-10-14T07:24:54.933Z,30.60
2022-10-14T07:27:28.322Z,29.00
2022-10-14T07:30:01.870Z,28.30
2022-10-14T07:32:37.018Z,29.10
2022-10-14T07:35:10.959Z,27.60
2022-10-14T07:37:45.637Z,26.60
2022-10-14T07:40:17.800Z,26.80
2022-10-14T07:42:49.766Z,28.30
2022-10-14T07:45:21.844Z,27.90
2022-10-14T07:47:53.995Z,27.70
2022-10-14T07:50:26.061Z,23.60
2022-10-14T07:53:01.180Z,24.40
2022-10-14T07:55:33.525Z,26.90
2022-10-14T07:58:05.438Z,24.80
2022-10-14T08:00:38.553Z,24.60
2022-10-14T08:03:10.554Z,28.20
2022-10-14T08:05:42.743Z,26.90
2022-10-14T08:08:15.757Z,31.60
2022-10-14T08:10:48.013Z,33.90
2022-10-14T08:13:19.906Z,32.70
2022-10-14T08:15:51.898Z,34.60
2022-10-14T08:18:26.966Z,31.90
2022-10-14T08:20:59.449Z,30.50
2022-10-14T08:23:33.000Z,28.80
2022-10-14T08:26:05.512Z,28.40
2022-10-14T08:28:37.926Z,25.10
2022-10-14T08:31:10.051Z,28.90
2022-10-14T08:33:41.907Z,26.20
2022-10-14T08:36:14.573Z,27.30
2022-10-14T08:38:46.824Z,26.20
2022-10-14T08:41:31.030Z,28.50
2022-10-14T08:44:15.286Z,25.80
2022-10-14T08:46:52.475Z,27.20
2022-10-14T08:49:30.863Z,27.60
2022-10-14T08:52:05.038Z,23.60
2022-10-14T08:54:42.732Z,23.60
2022-10-14T08:57:20.173Z,26.60
2022-10-14T08:59:51.955Z,23.90
2022-10-14T09:02:37.110Z,25.70
2022-10-14T09:05:14.762Z,24.00
2022-10-14T09:10:31.409Z,23.80
2022-10-14T09:13:15.509Z,20.30
2022-10-14T09:15:51.444Z,19.90
2022-10-14T09:18:33.886Z,21.00
2022-10-14T09:21:27.762Z,22.40
2022-10-14T09:24:16.712Z,22.20
2022-10-14T09:26:52.522Z,24.20
2022-10-14T09:29:28.752Z,21.90
2022-10-14T09:32:07.517Z,22.80
2022-10-14T09:34:42.523Z,22.00
2022-10-14T09:37:27.097Z,20.90
2022-10-14T09:40:03.456Z,19.50
2022-10-14T09:42:45.570Z,21.90
2022-10-14T09:45:19.990Z,21.30
2022-10-14T09:47:57.199Z,23.90
2022-10-14T09:50:41.412Z,25.10
2022-10-14T09:53:26.476Z,24.30
2022-10-14T09:56:01.103Z,24.00
2022-10-14T09:58:37.463Z,24.40
2022-10-14T10:01:15.936Z,22.60
2022-10-14T10:03:49.289Z,23.40
2022-10-14T10:06:26.002Z,23.60
2022-10-14T10:09:02.111Z,21.50
2022-10-14T10:11:37.677Z,20.50
2022-10-14T10:14:23.525Z,21.70
2022-10-14T10:17:19.535Z,23.30
2022-10-14T10:20:07.162Z,24.60
2022-10-14T10:22:39.570Z,22.50
2022-10-14T10:25:28.272Z,22.80
2022-10-14T10:28:02.462Z,27.90
2022-10-14T10:30:44.899Z,22.40
2022-10-14T10:33:29.349Z,24.50
2022-10-14T10:36:24.175Z,23.40
2022-10-14T10:39:03.669Z,22.30
2022-10-14T10:41:48.538Z,20.00
2022-10-14T10:44:40.647Z,18.80
2022-10-14T10:47:24.896Z,21.10
2022-10-14T10:50:18.257Z,21.00
2022-10-14T10:53:11.235Z,21.30
2022-10-14T10:55:56.585Z,21.40
2022-10-14T10:58:44.398Z,21.90
2022-10-14T11:04:08.755Z,22.80
2022-10-14T11:07:07.980Z,21.40
2022-10-14T11:10:08.762Z,21.00
2022-10-14T11:12:50.431Z,20.90
2022-10-14T11:15:33.125Z,23.20
2022-10-14T11:18:10.683Z,20.80
2022-10-14T11:20:55.805Z,20.10
2022-10-14T11:23:49.604Z,19.90
2022-10-14T11:26:38.335Z,20.70
2022-10-14T11:29:27.423Z,17.30
2022-10-14T11:32:11.699Z,22.80
2022-10-14T11:34:54.214Z,19.60
2022-10-14T11:37:45.331Z,20.90
2022-10-14T11:40:25.756Z,19.60
2022-10-14T11:43:08.848Z,16.80
2022-10-14T11:45:53.739Z,21.20
2022-10-14T11:48:33.935Z,15.60
2022-10-14T11:51:17.310Z,18.50
2022-10-14T11:54:00.985Z,18.20
2022-10-14T11:56:38.749Z,18.40
2022-10-14T11:59:23.919Z,18.40
2022-10-14T12:02:02.048Z,16.30
2022-10-14T12:04:38.383Z,14.50
2022-10-14T12:07:17.644Z,18.90
2022-10-14T12:09:59.024Z,16.80
2022-10-14T12:12:33.601Z,16.00
2022-10-14T12:15:14.817Z,16.20
2022-10-14T12:17:51.257Z,15.00
2022-10-14T12:20:31.277Z,14.60
2022-10-14T12:23:06.291Z,16.10
2022-10-14T12:25:48.734Z,14.10
2022-10-14T12:28:22.166Z,17.50
2022-10-14T12:31:14.032Z,15.90
2022-10-14T12:34:25.641Z,20.90
2022-10-14T12:36:57.414Z,15.40
2022-10-14T12:39:42.980Z,17.80
2022-10-14T12:42:16.995Z,13.20
2022-10-14T12:44:52.559Z,14.30
2022-10-14T12:47:30.990Z,14.40
2022-10-14T12:50:04.947Z,13.00
2022-10-14T12:52:39.771Z,14.10
2022-10-14T12:55:18.841Z,15.80
2022-10-14T12:57:56.437Z,16.70
2022-10-14T13:00:39.228Z,13.80
2022-10-14T13:03:22.836Z,12.60
2022-10-14T13:06:30.946Z,13.30
2022-10-14T13:09:33.255Z,13.90
2022-10-14T13:12:46.912Z,14.30
2022-10-14T13:15:53.242Z,12.40
2022-10-14T13:18:52.643Z,14.40
2022-10-14T13:21:53.504Z,13.40
2022-10-14T13:24:29.332Z,12.50
2022-10-14T13:27:15.541Z,14.80
2022-10-14T13:30:03.846Z,12.60
2022-10-14T13:32:42.025Z,13.00
2022-10-14T13:35:25.485Z,12.00
2022-10-14T13:38:01.306Z,11.30
2022-10-14T13:40:35.644Z,14.30
2022-10-14T13:43:16.629Z,49.80
2022-10-14T13:45:53.414Z,15.10
2022-10-14T13:48:31.419Z,13.60
2022-10-14T13:51:36.553Z,11.70
2022-10-14T13:54:24.100Z,12.90
2022-10-14T13:57:38.359Z,14.50
2022-10-14T14:02:54.512Z,12.70
2022-10-14T14:05:36.021Z,13.60
2022-10-14T14:11:16.366Z,16.10
2022-10-14T14:13:59.833Z,13.50
2022-10-14T14:16:36.325Z,14.10
2022-10-14T14:19:18.447Z,16.40
2022-10-14T14:21:50.122Z,12.70
2022-10-14T14:24:25.736Z,12.80
2022-10-14T14:26:58.262Z,13.70
2022-10-14T14:29:33.116Z,15.50
2022-10-14T14:32:08.162Z,14.40
2022-10-14T14:34:43.703Z,13.70
2022-10-14T14:40:21.906Z,14.50
2022-10-14T14:42:56.138Z,14.90
2022-10-14T14:45:30.574Z,15.60
2022-10-14T14:48:07.751Z,15.30
2022-10-14T14:50:43.485Z,14.80
2022-10-14T14:53:20.570Z,15.30
2022-10-14T14:56:05.843Z,13.90
2022-10-14T14:58:44.976Z,17.40
2022-10-14T15:01:25.459Z,14.30
2022-10-14T15:04:13.718Z,18.00
2022-10-14T15:06:53.486Z,17.70
2022-10-14T15:09:31.348Z,17.60
2022-10-14T15:12:05.325Z,19.10
2022-10-14T15:14:46.248Z,18.10
2022-10-14T15:17:34.230Z,17.00
2022-10-14T15:20:29.593Z,15.60
2022-10-14T15:23:01.321Z,17.40
2022-10-14T15:25:34.163Z,18.30
2022-10-14T15:28:06.006Z,17.00
2022-10-14T15:30:55.669Z,17.10
2022-10-14T15:33:28.391Z,16.00
2022-10-14T15:36:02.802Z,19.30
2022-10-14T15:38:35.546Z,19.10
2022-10-14T15:41:07.798Z,18.40
2022-10-14T15:43:39.988Z,19.50
2022-10-14T15:46:32.760Z,19.80
2022-10-14T15:49:12.861Z,19.70
2022-10-14T15:51:44.594Z,18.60
2022-10-14T15:54:18.786Z,20.30
2022-10-14T15:56:50.485Z,21.40
2022-10-14T15:59:22.228Z,20.60
2022-10-14T16:01:54.735Z,22.20
2022-10-14T16:04:28.071Z,24.10
2022-10-14T16:06:59.983Z,23.70
2022-10-14T16:09:31.737Z,23.30
2022-10-14T16:12:05.101Z,24.00
2022-10-14T16:14:37.352Z,26.00
2022-10-14T16:17:09.627Z,26.60
2022-10-14T16:19:43.959Z,29.40
2022-10-14T16:22:17.572Z,25.60
2022-10-14T16:24:49.274Z,26.60
2022-10-14T16:27:21.378Z,28.90
2022-10-14T16:29:53.377Z,27.50
2022-10-14T16:32:25.281Z,29.20
2022-10-14T16:34:57.151Z,35.10
2022-10-14T16:37:28.853Z,33.70
2022-10-14T16:40:01.065Z,33.80
2022-10-14T16:42:32.774Z,31.00
2022-10-14T16:45:05.014Z,31.80
2022-10-14T16:47:36.894Z,33.70
2022-10-14T16:50:11.657Z,38.30
2022-10-14T16:53:03.634Z,31.70
2022-10-14T16:55:37.830Z,28.60
2022-10-14T16:58:09.494Z,28.70
2022-10-14T17:00:42.305Z,30.40
2022-10-14T17:03:15.232Z,33.10
2022-10-14T17:05:49.547Z,30.10
2022-10-14T17:08:21.896Z,32.30
2022-10-14T17:10:59.620Z,30.90
2022-10-14T17:13:31.710Z,31.80
2022-10-14T17:16:04.545Z,30.10
2022-10-14T17:18:37.227Z,31.40
2022-10-14T17:21:12.233Z,32.60
2022-10-14T17:23:45.364Z,34.30
2022-10-14T17:26:18.996Z,34.10
2022-10-14T17:28:51.307Z,39.00
2022-10-14T17:31:23.751Z,38.30
2022-10-14T17:33:56.009Z,36.70
2022-10-14T17:36:30.852Z,37.70
2022-10-14T17:39:03.306Z,37.60
2022-10-14T17:41:35.172Z,38.40
2022-10-14T17:44:07.039Z,31.60
2022-10-14T17:46:38.787Z,31.60
2022-10-14T17:49:11.018Z,30.90
2022-10-14T17:51:42.732Z,33.70
2022-10-14T17:54:14.725Z,31.60
2022-10-14T17:56:46.398Z,29.90
2022-10-14T17:59:18.175Z,30.40
2022-10-14T18:02:05.533Z,27.90
2022-10-14T18:04:37.545Z,26.70
2022-10-14T18:07:09.342Z,26.40
2022-10-14T18:09:41.091Z,28.00
2022-10-14T18:12:12.773Z,26.60
2022-10-14T18:14:44.803Z,26.90
2022-10-14T18:17:16.930Z,28.00
2022-10-14T18:19:52.132Z,24.70
2022-10-14T18:22:24.266Z,25.50
2022-10-14T18:24:56.100Z,26.80
2022-10-14T18:27:28.137Z,24.70
2022-10-14T18:29:59.875Z,36.20
2022-10-14T18:32:31.583Z,33.10
2022-10-14T18:35:03.566Z,33.20
2022-10-14T18:37:35.743Z,29.80
2022-10-14T18:40:09.117Z,41.20
2022-10-14T18:42:41.017Z,37.70
2022-10-14T18:45:13.152Z,38.40
2022-10-14T18:47:45.190Z,38.90
2022-10-14T18:50:17.072Z,35.60
2022-10-14T18:52:48.907Z,36.10
2022-10-14T18:55:20.624Z,32.00
2022-10-14T18:57:53.551Z,25.70
2022-10-14T19:00:26.920Z,26.90
2022-10-14T19:02:58.771Z,22.90
2022-10-14T19:05:33.237Z,26.30
2022-10-14T19:08:07.565Z,25.30
2022-10-14T19:10:39.522Z,26.60
2022-10-14T19:13:12.274Z,24.50
2022-10-14T19:15:46.126Z,25.10
2022-10-14T19:18:21.818Z,25.80
2022-10-14T19:20:56.825Z,29.70
2022-10-14T19:23:28.617Z,28.40
2022-10-14T19:26:01.233Z,25.50
2022-10-14T19:28:33.134Z,27.60
2022-10-14T19:31:09.116Z,26.00
2022-10-14T19:33:42.525Z,30.30
2022-10-14T19:36:16.075Z,31.50
2022-10-14T19:38:52.136Z,31.40
2022-10-14T19:41:24.290Z,29.60
2022-10-14T19:43:57.112Z,33.10
2022-10-14T19:46:30.383Z,34.10
2022-10-14T19:49:04.369Z,32.20
2022-10-14T19:51:36.720Z,30.40
2022-10-14T19:54:08.694Z,30.00
2022-10-14T19:56:40.760Z,33.50
2022-10-14T19:59:14.210Z,31.20
2022-10-14T20:01:46.041Z,33.70
2022-10-14T20:04:20.804Z,35.90
2022-10-14T20:06:54.626Z,36.70
2022-10-14T20:09:26.381Z,35.00
2022-10-14T20:11:58.459Z,38.10
2022-10-14T20:14:30.515Z,35.80
2022-10-14T20:17:03.859Z,36.80
2022-10-14T20:19:39.904Z,38.20
2022-10-14T20:22:12.176Z,35.90
2022-10-14T20:24:44.525Z,32.70
2022-10-14T20:27:16.307Z,31.20
2022-10-14T20:29:48.140Z,37.00
2022-10-14T20:32:19.981Z,30.30
2022-10-14T20:34:51.745Z,30.50
2022-10-14T20:37:27.271Z,28.20
2022-10-14T20:39:59.978Z,25.10
2022-10-14T20:42:33.917Z,28.60
2022-10-14T20:45:06.981Z,28.20
2022-10-14T20:47:38.670Z,28.40
2022-10-14T20:50:11.764Z,29.50
2022-10-14T20:52:43.878Z,29.30
2022-10-14T20:55:16.445Z,29.30
2022-10-14T20:57:48.164Z,28.20
2022-10-14T21:00:20.377Z,27.20
2022-10-14T21:02:53.369Z,30.10
2022-10-14T21:05:25.068Z,28.70
2022-10-14T21:07:56.933Z,27.70
2022-10-14T21:10:30.540Z,28.00
2022-10-14T21:13:02.313Z,28.80
2022-10-14T21:15:34.376Z,30.70
2022-10-14T21:18:06.655Z,30.60
2022-10-14T21:20:38.398Z,30.80
2022-10-14T21:23:10.105Z,31.30
2022-10-14T21:25:41.866Z,30.20
2022-10-14T21:28:13.900Z,26.40
2022-10-14T21:30:46.012Z,27.80
2022-10-14T21:33:17.796Z,30.00
2022-10-14T21:35:49.474Z,30.90
2022-10-14T21:38:21.278Z,26.60
2022-10-14T21:40:53.206Z,28.50
2022-10-14T21:43:25.466Z,31.90
2022-10-14T21:45:57.235Z,27.70
2022-10-14T21:48:28.919Z,28.70
2022-10-14T21:51:09.246Z,29.40
2022-10-14T21:53:42.580Z,28.80
2022-10-14T21:56:15.615Z,28.40
2022-10-14T21:58:47.460Z,27.30
2022-10-14T22:01:22.710Z,27.40
2022-10-14T22:03:58.158Z,25.30
2022-10-14T22:06:30.872Z,29.20
2022-10-14T22:09:05.171Z,28.40
2022-10-14T22:11:39.761Z,27.10
2022-10-14T22:14:14.982Z,26.70
2022-10-14T22:16:47.233Z,28.70
2022-10-14T22:19:19.892Z,26.10
2022-10-14T22:21:51.612Z,30.50
2022-10-14T22:24:23.326Z,26.70
2022-10-14T22:26:55.669Z,28.70
2022-10-14T22:29:27.470Z,25.70
2022-10-14T22:31:59.508Z,25.80
2022-10-14T22:34:31.313Z,23.50
2022-10-14T22:37:03.015Z,27.50
2022-10-14T22:39:34.767Z,26.40
2022-10-14T22:42:06.655Z,25.80
2022-10-14T22:44:38.768Z,24.50
2022-10-14T22:47:10.866Z,23.90
2022-10-14T22:49:42.560Z,24.60
2022-10-14T22:52:14.218Z,26.80
2022-10-14T22:54:45.943Z,26.80
2022-10-14T22:57:18.173Z,28.60
2022-10-14T22:59:49.909Z,27.40
2022-10-14T23:02:21.999Z,25.10
2022-10-14T23:04:53.956Z,27.10
2022-10-14T23:07:25.779Z,23.60
2022-10-14T23:09:57.459Z,29.50
2022-10-14T23:12:29.473Z,23.50
2022-10-14T23:15:01.170Z,23.10
2022-10-14T23:17:33.291Z,25.40
2022-10-14T23:20:05.154Z,23.80
2022-10-14T23:22:37.167Z,23.00
2022-10-14T23:25:10.254Z,22.20
2022-10-14T23:27:42.290Z,21.00
2022-10-14T23:30:14.546Z,20.40
2022-10-14T23:32:46.246Z,21.90
2022-10-14T23:35:18.381Z,19.30
2022-10-14T23:37:50.356Z,18.10
2022-10-14T23:40:22.046Z,18.80
2022-10-14T23:42:53.671Z,18.10
2022-10-14T23:45:25.370Z,21.60
2022-10-14T23:47:57.253Z,20.30
2022-10-14T23:50:29.925Z,18.70
2022-10-14T23:53:01.806Z,17.20
2022-10-14T23:55:33.573Z,16.90
2022-10-14T23:58:05.245Z,19.30
